createdAt,value
2023-03-28T00:00:46.282Z,1.50
2023-03-28T00:01:46.499Z,1.20
2023-03-28T00:02:46.265Z,2.00
2023-03-28T00:03:46.553Z,3.00
2023-03-28T00:04:46.264Z,6.20
2023-03-28T00:05:46.319Z,1.40
2023-03-28T00:06:46.208Z,1.30
2023-03-28T00:07:46.301Z,1.30
2023-03-28T00:08:46.238Z,1.60
2023-03-28T00:09:46.311Z,2.40
2023-03-28T00:10:46.162Z,2.20
2023-03-28T00:11:46.379Z,1.00
2023-03-28T00:12:46.095Z,2.00
2023-03-28T00:13:46.236Z,1.40
2023-03-28T00:14:46.069Z,1.60
2023-03-28T00:15:46.242Z,1.70
2023-03-28T00:16:46.038Z,2.00
2023-03-28T00:17:46.163Z,1.80
2023-03-28T00:18:46.004Z,1.50
2023-03-28T00:19:46.167Z,2.20
2023-03-28T00:20:46.098Z,1.90
2023-03-28T00:21:46.033Z,2.30
2023-03-28T00:22:46.194Z,2.30
2023-03-28T00:23:45.967Z,4.80
2023-03-28T00:24:46.095Z,1.80
2023-03-28T00:25:45.978Z,2.20
2023-03-28T00:26:46.786Z,2.90
2023-03-28T00:27:45.983Z,2.10
2023-03-28T00:28:46.024Z,4.90
2023-03-28T00:29:45.922Z,2.70
2023-03-28T00:30:46.060Z,6.60
2023-03-28T00:31:46.125Z,9.30
2023-03-28T00:32:45.970Z,19.00
2023-03-28T00:33:45.884Z,18.30
2023-03-28T00:34:46.004Z,35.40
2023-03-28T00:35:45.881Z,17.50
2023-03-28T00:36:45.968Z,16.30
2023-03-28T00:37:45.836Z,5.90
2023-03-28T00:38:45.889Z,3.70
2023-03-28T00:39:45.759Z,2.50
2023-03-28T00:40:45.794Z,4.80
2023-03-28T00:41:45.808Z,2.20
2023-03-28T00:42:45.846Z,2.30
2023-03-28T00:43:52.015Z,1.40
2023-03-28T00:44:47.641Z,2.60
2023-03-28T00:45:48.848Z,1.40
2023-03-28T00:46:45.708Z,2.10
2023-03-28T00:47:45.809Z,2.70
2023-03-28T00:48:45.666Z,1.30
2023-03-28T00:49:45.769Z,1.80
2023-03-28T00:50:45.612Z,1.10
2023-03-28T00:51:45.684Z,1.80
2023-03-28T00:52:45.595Z,1.40
2023-03-28T00:53:45.713Z,4.10
2023-03-28T00:54:45.598Z,1.90
2023-03-28T00:55:45.729Z,2.50
2023-03-28T00:56:45.582Z,2.10
2023-03-28T00:57:45.741Z,1.60
2023-03-28T00:58:45.543Z,2.10
2023-03-28T00:59:45.741Z,1.40
2023-03-28T01:00:45.552Z,3.50
2023-03-28T01:01:45.719Z,1.30
2023-03-28T01:02:45.655Z,2.90
2023-03-28T01:03:45.668Z,3.30
2023-03-28T01:04:45.480Z,2.80
2023-03-28T01:05:45.596Z,1.50
2023-03-28T01:06:45.450Z,1.60
2023-03-28T01:07:45.524Z,1.90
2023-03-28T01:08:45.425Z,2.00
2023-03-28T01:09:45.554Z,1.90
2023-03-28T01:10:45.401Z,3.10
2023-03-28T01:11:45.623Z,3.60
2023-03-28T01:12:45.509Z,2.70
2023-03-28T01:13:45.481Z,2.00
2023-03-28T01:14:46.062Z,1.50
2023-03-28T01:15:45.465Z,2.00
2023-03-28T01:16:45.478Z,1.90
2023-03-28T01:17:45.506Z,1.90
2023-03-28T01:18:45.285Z,1.60
2023-03-28T01:19:45.373Z,1.80
2023-03-28T01:20:45.238Z,3.80
2023-03-28T01:21:45.493Z,2.80
2023-03-28T01:22:57.332Z,1.90
2023-03-28T01:23:45.237Z,1.80
2023-03-28T01:24:45.393Z,3.00
2023-03-28T01:25:45.198Z,1.80
2023-03-28T01:26:45.441Z,2.90
2023-03-28T01:27:45.191Z,3.30
2023-03-28T01:28:45.296Z,1.30
2023-03-28T01:29:45.180Z,1.60
2023-03-28T01:30:45.433Z,1.60
2023-03-28T01:31:45.159Z,2.50
2023-03-28T01:32:45.257Z,1.40
2023-03-28T01:33:45.130Z,1.90
2023-03-28T01:34:45.148Z,1.90
2023-03-28T01:35:45.107Z,1.50
2023-03-28T01:36:45.143Z,1.90
2023-03-28T01:37:45.076Z,2.60
2023-03-28T01:38:45.190Z,3.60
2023-03-28T01:39:45.040Z,3.30
2023-03-28T01:40:45.074Z,3.50
2023-03-28T01:41:44.989Z,3.10
2023-03-28T01:42:45.144Z,2.50
2023-03-28T01:43:44.981Z,1.80
2023-03-28T01:44:45.013Z,2.80
2023-03-28T01:45:44.995Z,6.70
2023-03-28T01:46:45.016Z,3.80
2023-03-28T01:47:45.005Z,2.60
2023-03-28T01:48:45.050Z,2.40
2023-03-28T01:49:44.898Z,3.80
2023-03-28T01:50:44.951Z,2.00
2023-03-28T01:51:44.894Z,2.60
2023-03-28T01:52:44.954Z,2.90
2023-03-28T01:53:45.024Z,3.30
2023-03-28T01:54:44.817Z,3.90
2023-03-28T01:55:44.999Z,3.20
2023-03-28T01:56:44.831Z,3.50
2023-03-28T01:57:45.052Z,2.40
2023-03-28T01:58:45.019Z,5.20
2023-03-28T01:59:44.782Z,3.10
2023-03-28T02:00:44.819Z,3.00
2023-03-28T02:01:44.755Z,2.50
2023-03-28T02:02:44.937Z,3.10
2023-03-28T02:03:44.741Z,3.20
2023-03-28T02:04:44.898Z,2.40
2023-03-28T02:05:44.707Z,1.90
2023-03-28T02:06:44.848Z,2.60
2023-03-28T02:07:44.672Z,3.80
2023-03-28T02:08:44.868Z,3.60
2023-03-28T02:09:44.688Z,2.70
2023-03-28T02:10:44.806Z,3.50
2023-03-28T02:11:44.622Z,3.00
2023-03-28T02:12:44.707Z,2.80
2023-03-28T02:13:44.619Z,5.40
2023-03-28T02:14:44.763Z,2.60
2023-03-28T02:15:44.595Z,2.70
2023-03-28T02:16:44.697Z,2.90
2023-03-28T02:17:44.614Z,2.00
2023-03-28T02:18:44.741Z,5.10
2023-03-28T02:19:44.779Z,4.00
2023-03-28T02:20:44.505Z,2.60
2023-03-28T02:21:44.616Z,4.70
2023-03-28T02:22:44.477Z,2.70
2023-03-28T02:23:44.579Z,2.50
2023-03-28T02:24:44.579Z,1.60
2023-03-28T02:25:44.485Z,2.50
2023-03-28T02:26:44.590Z,3.30
2023-03-28T02:27:44.463Z,2.00
2023-03-28T02:28:44.565Z,2.10
2023-03-28T02:29:44.630Z,3.00
2023-03-28T02:30:44.389Z,2.60
2023-03-28T02:31:44.563Z,4.00
2023-03-28T02:32:44.421Z,2.70
2023-03-28T02:33:44.451Z,1.70
2023-03-28T02:34:44.332Z,2.70
2023-03-28T02:35:44.478Z,2.40
2023-03-28T02:36:44.329Z,1.80
2023-03-28T02:37:44.452Z,3.20
2023-03-28T02:38:44.282Z,5.50
2023-03-28T02:39:44.507Z,3.80
2023-03-28T02:40:44.253Z,2.40
2023-03-28T02:41:44.463Z,3.10
2023-03-28T02:42:44.266Z,2.60
2023-03-28T02:43:44.481Z,2.80
2023-03-28T02:44:44.199Z,2.90
2023-03-28T02:45:44.372Z,3.50
2023-03-28T02:46:44.191Z,5.10
2023-03-28T02:47:44.376Z,3.30
2023-03-28T02:48:44.184Z,2.80
2023-03-28T02:49:50.387Z,2.10
2023-03-28T02:50:44.372Z,3.00
2023-03-28T02:51:44.157Z,3.00
2023-03-28T02:52:44.420Z,3.30
2023-03-28T02:53:44.130Z,2.50
2023-03-28T02:54:44.283Z,3.30
2023-03-28T02:55:44.089Z,3.30
2023-03-28T02:56:44.375Z,4.80
2023-03-28T02:57:44.066Z,3.10
2023-03-28T02:58:44.130Z,19.20
2023-03-28T02:59:44.064Z,49.10
2023-03-28T03:00:44.138Z,51.40
2023-03-28T03:01:44.092Z,68.50
2023-03-28T03:02:44.162Z,55.70
2023-03-28T03:03:44.062Z,40.20
2023-03-28T03:04:44.206Z,31.80
2023-03-28T03:05:43.992Z,25.00
2023-03-28T03:06:44.157Z,19.60
2023-03-28T03:07:43.952Z,12.00
2023-03-28T03:08:44.089Z,12.90
2023-03-28T03:09:45.781Z,16.10
2023-03-28T03:10:44.009Z,12.30
2023-03-28T03:11:43.931Z,5.10
2023-03-28T03:12:44.005Z,7.30
2023-03-28T03:13:43.868Z,6.80
2023-03-28T03:14:43.952Z,5.60
2023-03-28T03:15:43.865Z,5.50
2023-03-28T03:16:44.047Z,4.30
2023-03-28T03:17:43.838Z,3.40
2023-03-28T03:18:43.935Z,3.70
2023-03-28T03:19:43.825Z,3.60
2023-03-28T03:20:43.950Z,3.30
2023-03-28T03:21:43.810Z,3.70
2023-03-28T03:22:43.933Z,3.90
2023-03-28T03:23:43.760Z,3.00
2023-03-28T03:24:43.879Z,2.60
2023-03-28T03:25:43.734Z,6.40
2023-03-28T03:26:43.830Z,4.10
2023-03-28T03:27:43.698Z,5.80
2023-03-28T03:28:43.806Z,5.50
2023-03-28T03:29:43.677Z,4.00
2023-03-28T03:30:43.946Z,3.30
2023-03-28T03:31:43.742Z,2.50
2023-03-28T03:32:43.691Z,4.00
2023-03-28T03:33:43.732Z,3.70
2023-03-28T03:34:43.617Z,2.40
2023-03-28T03:35:43.762Z,3.00
2023-03-28T03:36:43.587Z,3.80
2023-03-28T03:37:43.701Z,5.30
2023-03-28T03:38:43.584Z,3.80
2023-03-28T03:39:43.789Z,3.20
2023-03-28T03:40:43.560Z,2.40
2023-03-28T03:41:43.688Z,2.00
2023-03-28T03:42:43.527Z,2.40
2023-03-28T03:43:45.300Z,3.80
2023-03-28T03:44:43.518Z,5.20
2023-03-28T03:45:43.737Z,2.10
2023-03-28T03:46:43.529Z,3.10
2023-03-28T03:47:43.620Z,2.70
2023-03-28T03:48:49.576Z,2.00
2023-03-28T03:49:43.410Z,3.10
2023-03-28T03:50:43.562Z,4.70
2023-03-28T03:51:43.390Z,3.20
2023-03-28T03:52:43.625Z,2.60
2023-03-28T03:53:43.360Z,8.10
2023-03-28T03:54:43.586Z,2.60
2023-03-28T03:55:43.353Z,2.90
2023-03-28T03:56:43.644Z,4.50
2023-03-28T03:57:43.392Z,3.30
2023-03-28T03:58:43.311Z,2.80
2023-03-28T03:59:43.436Z,2.60
2023-03-28T04:00:43.278Z,2.10
2023-03-28T04:01:43.442Z,3.80
2023-03-28T04:02:43.604Z,3.00
2023-03-28T04:03:43.245Z,3.00
2023-03-28T04:04:43.507Z,2.80
2023-03-28T04:05:43.261Z,2.60
2023-03-28T04:06:43.364Z,2.70
2023-03-28T04:07:43.372Z,2.80
2023-03-28T04:08:43.190Z,2.80
2023-03-28T04:09:43.334Z,2.10
2023-03-28T04:10:43.975Z,3.70
2023-03-28T04:11:43.280Z,2.40
2023-03-28T04:12:43.156Z,2.10
2023-03-28T04:13:43.199Z,2.30
2023-03-28T04:14:43.110Z,3.60
2023-03-28T04:15:43.321Z,3.00
2023-03-28T04:16:43.140Z,2.00
2023-03-28T04:17:43.336Z,2.50
2023-03-28T04:18:43.090Z,2.40
2023-03-28T04:19:43.252Z,2.30
2023-03-28T04:20:43.059Z,3.50
2023-03-28T04:21:43.113Z,2.40
2023-03-28T04:22:45.267Z,4.30
2023-03-28T04:23:43.184Z,3.80
2023-03-28T04:24:43.006Z,5.10
2023-03-28T04:25:43.068Z,4.60
2023-03-28T04:26:42.991Z,4.00
2023-03-28T20:20:24.658Z,1.60
2023-03-28T20:21:25.504Z,3.80
2023-03-28T20:22:25.516Z,3.70
2023-03-28T20:23:25.390Z,3.30
2023-03-28T20:24:25.371Z,3.40
2023-03-28T20:25:25.287Z,5.00
2023-03-28T20:26:25.202Z,13.40
2023-03-28T20:27:25.323Z,4.40
2023-03-28T20:28:25.457Z,2.40
2023-03-28T20:29:25.211Z,2.20
2023-03-28T20:30:25.420Z,5.10
2023-03-28T20:31:25.237Z,2.50
2023-03-28T20:32:25.376Z,3.00
2023-03-28T20:33:25.386Z,2.50
2023-03-28T20:34:30.645Z,3.30
2023-03-28T20:35:25.069Z,2.00
2023-03-28T20:36:25.435Z,2.90
2023-03-28T20:37:25.039Z,3.00
2023-03-28T20:38:25.219Z,2.90
2023-03-28T20:39:25.544Z,4.10
2023-03-28T20:40:25.263Z,3.90
2023-03-28T20:41:25.996Z,2.20
2023-03-28T20:42:26.097Z,3.10
2023-03-28T20:43:25.474Z,2.80
2023-03-28T20:44:25.099Z,4.30
2023-03-28T20:45:25.026Z,4.40
2023-03-28T20:46:25.552Z,4.80
2023-03-28T20:47:26.097Z,2.20
2023-03-28T20:48:26.597Z,2.70
2023-03-28T20:49:25.319Z,2.90
2023-03-28T20:50:25.230Z,2.70
2023-03-28T20:51:24.949Z,4.20
2023-03-28T20:52:25.002Z,3.40
2023-03-28T20:53:24.969Z,6.50
2023-03-28T20:54:26.171Z,2.60
2023-03-28T20:55:25.599Z,4.60
2023-03-28T20:56:25.214Z,1.60
2023-03-28T20:57:24.845Z,4.90
2023-03-28T20:58:24.941Z,2.50
2023-03-28T20:59:24.910Z,2.40
2023-03-28T21:00:25.280Z,3.10
2023-03-28T21:01:25.146Z,4.20
2023-03-28T21:02:24.814Z,2.50
2023-03-28T21:03:24.843Z,3.30
2023-03-28T21:04:24.900Z,4.00
2023-03-28T21:05:24.950Z,2.20
2023-03-28T21:06:25.708Z,2.60
2023-03-28T21:07:24.950Z,4.00
2023-03-28T21:08:25.337Z,5.30
2023-03-28T21:09:25.711Z,3.60
2023-03-28T21:10:25.454Z,5.30
2023-03-28T21:11:24.610Z,8.20
2023-03-28T21:12:24.773Z,3.20
2023-03-28T21:13:24.665Z,2.50
2023-03-28T21:14:24.807Z,2.50
2023-03-28T21:15:24.506Z,3.40
2023-03-28T21:16:24.806Z,2.60
2023-03-28T21:17:24.531Z,3.30
2023-03-28T21:18:24.638Z,3.20
2023-03-28T21:19:24.441Z,3.00
2023-03-28T21:20:24.636Z,3.90
2023-03-28T21:21:24.422Z,2.00
2023-03-28T21:22:24.553Z,4.90
2023-03-28T21:23:24.435Z,3.70
2023-03-28T21:24:24.575Z,6.00
2023-03-28T21:25:24.568Z,1.90
2023-03-28T21:26:24.479Z,3.70
2023-03-28T21:27:24.480Z,2.30
2023-03-28T21:28:24.377Z,3.10
2023-03-28T21:29:26.002Z,2.20
2023-03-28T21:30:24.335Z,4.90
2023-03-28T21:31:24.403Z,2.90
2023-03-28T21:32:24.350Z,5.10
2023-03-28T21:33:24.519Z,3.20
2023-03-28T21:34:24.268Z,2.30
2023-03-28T21:35:24.360Z,3.70
2023-03-28T21:36:24.273Z,3.80
2023-03-28T21:37:24.344Z,2.40
2023-03-28T21:38:24.278Z,2.40
2023-03-28T21:39:24.460Z,1.70
2023-03-28T21:40:24.230Z,3.10
2023-03-28T21:41:24.278Z,6.40
2023-03-28T21:42:24.198Z,4.60
2023-03-28T21:43:24.392Z,2.60
2023-03-28T21:44:24.219Z,1.90
2023-03-28T21:45:24.461Z,3.00
2023-03-28T21:46:24.290Z,4.70
2023-03-28T21:47:25.265Z,5.20
2023-03-28T21:48:24.072Z,2.30
2023-03-28T21:49:24.223Z,4.20
2023-03-28T21:50:24.069Z,2.70
2023-03-28T21:51:24.153Z,5.50
2023-03-28T21:52:24.020Z,3.10
2023-03-28T21:53:24.174Z,3.30
2023-03-28T21:54:24.040Z,2.30
2023-03-28T21:55:24.167Z,2.50
2023-03-28T21:56:24.159Z,2.00
2023-03-28T21:57:24.018Z,1.90
2023-03-28T21:58:24.232Z,3.30
2023-03-28T21:59:23.968Z,3.00
2023-03-28T22:00:24.302Z,3.40
2023-03-28T22:01:24.133Z,2.00
2023-03-28T22:02:23.934Z,2.70
2023-03-28T22:03:24.296Z,3.10
2023-03-28T22:04:23.894Z,3.60
2023-03-28T22:05:29.651Z,2.20
2023-03-28T22:06:24.026Z,2.60
2023-03-28T22:07:23.859Z,3.00
2023-03-28T22:08:23.949Z,2.90
2023-03-28T22:09:23.837Z,3.90
2023-03-28T22:10:23.990Z,2.80
2023-03-28T22:11:23.807Z,2.20
2023-03-28T22:12:23.938Z,3.10
2023-03-28T22:13:24.011Z,3.00
2023-03-28T22:14:23.997Z,2.80
2023-03-28T22:15:23.846Z,3.30
2023-03-28T22:16:24.048Z,5.80
2023-03-28T22:17:23.792Z,3.70
2023-03-28T22:18:23.881Z,4.00
2023-03-28T22:19:23.722Z,4.20
2023-03-28T22:20:23.802Z,4.00
2023-03-28T22:21:23.680Z,4.40
2023-03-28T22:22:23.844Z,3.90
2023-03-28T22:23:23.681Z,5.50
2023-03-28T22:24:23.854Z,2.00
2023-03-28T22:25:23.627Z,2.70
2023-03-28T22:26:23.871Z,1.50
2023-03-28T22:27:23.741Z,5.70
2023-03-28T22:28:23.581Z,2.70
2023-03-28T22:29:23.745Z,1.20
2023-03-28T22:30:23.574Z,1.90
2023-03-28T22:31:23.737Z,1.90
2023-03-28T22:32:23.723Z,2.10
2023-03-28T22:33:23.653Z,1.80
2023-03-28T22:34:23.734Z,3.90
2023-03-28T22:35:23.520Z,2.20
2023-03-28T22:36:23.769Z,3.50
2023-03-28T22:37:23.679Z,16.10
2023-03-28T22:38:23.473Z,2.60
2023-03-28T22:39:23.608Z,6.60
2023-03-28T22:40:23.475Z,2.20
2023-03-28T22:41:23.567Z,4.80
2023-03-28T22:42:23.386Z,2.50
2023-03-28T22:43:25.045Z,3.50
2023-03-28T22:44:23.578Z,1.60
2023-03-28T22:45:23.582Z,1.50
2023-03-28T22:46:23.434Z,1.80
2023-03-28T22:47:23.567Z,5.20
2023-03-28T22:48:23.327Z,2.80
2023-03-28T22:49:23.421Z,1.90
2023-03-28T22:50:23.298Z,2.30
2023-03-28T22:51:23.488Z,2.50
2023-03-28T22:52:23.286Z,1.50
2023-03-28T22:53:23.507Z,1.90
2023-03-28T22:54:23.234Z,1.40
2023-03-28T22:55:23.533Z,2.10
2023-03-28T22:56:23.225Z,2.90
2023-03-28T22:57:23.413Z,3.90
2023-03-28T22:58:23.265Z,2.70
2023-03-28T22:59:23.218Z,1.50
2023-03-28T23:00:23.676Z,2.80
2023-03-28T23:01:23.369Z,1.60
2023-03-28T23:02:23.328Z,3.10
2023-03-28T23:03:23.330Z,1.60
2023-03-28T23:04:23.104Z,2.30
2023-03-28T23:05:23.365Z,3.50
2023-03-28T23:06:23.116Z,2.70
2023-03-28T23:07:23.255Z,2.10
2023-03-28T23:08:23.237Z,2.80
2023-03-28T23:09:24.742Z,3.50
2023-03-28T23:10:23.170Z,2.20
2023-03-28T23:11:23.041Z,3.50
2023-03-28T23:12:23.294Z,3.70
2023-03-28T23:13:23.050Z,2.40
2023-03-28T23:14:23.131Z,2.20
2023-03-28T23:15:23.036Z,2.90
2023-03-28T23:16:23.132Z,2.40
2023-03-28T23:17:22.982Z,2.30
2023-03-28T23:18:23.136Z,3.10
2023-03-28T23:19:22.934Z,2.80
2023-03-28T23:20:23.101Z,4.10
2023-03-28T23:21:22.929Z,30.90
2023-03-28T23:22:23.006Z,103.30
2023-03-28T23:23:22.922Z,76.60
2023-03-28T23:24:23.067Z,64.90
2023-03-28T23:25:22.855Z,33.80
2023-03-28T23:26:23.054Z,17.90
2023-03-28T23:27:22.822Z,7.90
2023-03-28T23:28:23.103Z,5.70
2023-03-28T23:29:22.878Z,2.70
2023-03-28T23:30:22.792Z,7.10
2023-03-28T23:31:22.938Z,2.40
2023-03-28T23:32:22.828Z,1.90
2023-03-28T23:33:23.061Z,1.00
2023-03-28T23:34:22.856Z,1.80
2023-03-28T23:35:22.732Z,1.20
2023-03-28T23:36:22.857Z,2.50
2023-03-28T23:37:22.705Z,2.40
2023-03-28T23:38:22.864Z,3.30
2023-03-28T23:39:22.840Z,3.10
2023-03-28T23:40:22.650Z,1.90
2023-03-28T23:41:22.751Z,2.90
2023-03-28T23:42:22.627Z,2.50
2023-03-28T23:43:22.815Z,2.60
2023-03-28T23:44:22.601Z,2.20
2023-03-28T23:45:22.677Z,2.10
2023-03-28T23:46:22.594Z,2.30
2023-03-28T23:47:22.776Z,1.60
2023-03-28T23:48:22.538Z,5.00
2023-03-28T23:49:22.712Z,2.30
2023-03-28T23:50:22.512Z,1.30
2023-03-28T23:51:22.720Z,2.80
2023-03-28T23:52:22.506Z,1.80
2023-03-28T23:53:22.702Z,1.90
2023-03-28T23:54:22.502Z,2.30
2023-03-28T23:55:22.643Z,2.60
2023-03-28T23:56:22.435Z,1.50
2023-03-28T23:57:22.703Z,6.20
2023-03-28T23:58:22.412Z,2.30
2023-03-28T23:59:22.689Z,2.20
